createdAt,value
2023-02-27T00:00:31.328Z,99595.58
2023-02-27T00:01:35.749Z,99594.53
2023-02-27T00:02:39.917Z,99598.25
2023-02-27T00:03:44.144Z,99598.88
2023-02-27T00:04:48.303Z,99595.87
2023-02-27T00:05:52.455Z,99596.47
2023-02-27T00:06:56.565Z,99594.64
2023-02-27T00:08:00.703Z,99591.59
2023-02-27T00:09:04.991Z,99596.27
2023-02-27T00:10:09.251Z,99594.97
2023-02-27T00:11:13.391Z,99592.81
2023-02-27T00:12:17.491Z,99593.03
2023-02-27T00:13:21.605Z,99598.92
2023-02-27T00:14:25.710Z,99593.63
2023-02-27T00:15:29.846Z,99601.6
2023-02-27T00:16:34.013Z,99596.95
2023-02-27T00:17:38.401Z,99600.63
2023-02-27T00:18:42.708Z,99591.02
2023-02-27T00:19:46.837Z,99595.45
2023-02-27T00:20:50.943Z,99603.09
2023-02-27T00:21:55.023Z,99597.31
2023-02-27T00:22:59.137Z,99601.45
2023-02-27T00:24:03.267Z,99595.23
2023-02-27T00:25:07.497Z,99596.57
2023-02-27T00:26:11.631Z,99595.86
2023-02-27T00:27:15.745Z,99596.86
2023-02-27T00:28:19.858Z,99598.62
2023-02-27T00:29:23.978Z,99592.91
2023-02-27T00:30:28.172Z,99597.98
2023-02-27T00:31:32.438Z,99603.04
2023-02-27T00:32:36.889Z,99606.2
2023-02-27T00:33:41.055Z,99602.48
2023-02-27T00:34:45.163Z,99606.61
2023-02-27T00:35:49.263Z,99611.64
2023-02-27T00:36:53.367Z,99605.98
2023-02-27T00:37:57.563Z,99604.89
2023-02-27T00:39:01.693Z,99602.85
2023-02-27T00:40:05.817Z,99606.46
2023-02-27T00:41:09.908Z,99610.59
2023-02-27T00:42:14.008Z,99611.19
2023-02-27T00:43:18.221Z,99602.62
2023-02-27T00:44:22.345Z,99604.37
2023-02-27T00:45:26.478Z,99602.51
2023-02-27T00:46:30.653Z,99601.77
2023-02-27T00:47:34.911Z,99598.45
2023-02-27T00:48:39.034Z,99607.75
2023-02-27T00:49:43.146Z,99598.55
2023-02-27T00:50:47.239Z,99599.38
2023-02-27T00:51:51.345Z,99605.26
2023-02-27T00:52:55.491Z,99606.19
2023-02-27T00:53:59.801Z,99604.52
2023-02-27T00:55:04.039Z,99606.27
2023-02-27T00:56:08.162Z,99603.57
2023-02-27T00:57:12.294Z,99602.13
2023-02-27T00:58:16.463Z,99601.61
2023-02-27T00:59:20.846Z,99602.13
2023-02-27T01:00:24.979Z,99595.38
2023-02-27T01:01:29.518Z,99603.05
2023-02-27T01:02:33.681Z,99600.33
2023-02-27T01:03:37.891Z,99602.6
2023-02-27T01:04:42.009Z,99598.66
2023-02-27T01:05:46.125Z,99607.95
2023-02-27T01:06:50.298Z,99608.48
2023-02-27T01:07:54.413Z,99603.53
2023-02-27T01:08:58.585Z,99602.89
2023-02-27T01:10:02.747Z,99606.58
2023-02-27T01:11:06.863Z,99612.27
2023-02-27T01:12:11.005Z,99608.95
2023-02-27T01:13:15.097Z,99603.78
2023-02-27T01:14:19.230Z,99611.11
2023-02-27T01:15:23.360Z,99605.83
2023-02-27T01:16:27.689Z,99609.03
2023-02-27T01:17:31.914Z,99607.46
2023-02-27T01:18:36.069Z,99602.39
2023-02-27T01:19:40.245Z,99608.28
2023-02-27T01:20:44.364Z,99616.33
2023-02-27T01:21:48.478Z,99617.77
2023-02-27T01:22:52.603Z,99618.59
2023-02-27T01:23:56.711Z,99618.24
2023-02-27T01:25:00.820Z,99623.83
2023-02-27T01:26:04.963Z,99622.27
2023-02-27T01:27:09.071Z,99622.67
2023-02-27T01:28:13.290Z,99628.96
2023-02-27T01:29:17.427Z,99622.73
2023-02-27T01:30:21.629Z,99627.06
2023-02-27T01:31:26.616Z,99630.89
2023-02-27T01:32:31.747Z,99624.38
2023-02-27T01:33:36.037Z,99631.3
2023-02-27T01:34:40.153Z,99629.2
2023-02-27T01:35:44.264Z,99628.28
2023-02-27T01:36:48.373Z,99628.28
2023-02-27T01:37:52.498Z,99625.78
2023-02-27T01:38:56.614Z,99631.37
2023-02-27T01:40:00.736Z,99624.73
2023-02-27T01:41:04.897Z,99634.16
2023-02-27T01:42:09.005Z,99628.64
2023-02-27T01:43:14.928Z,99635.08
2023-02-27T01:44:19.026Z,99634.23
2023-02-27T01:45:23.149Z,99632.41
2023-02-27T01:46:27.258Z,99628.86
2023-02-27T01:47:31.357Z,99642.27
2023-02-27T01:48:35.453Z,99638.88
2023-02-27T01:49:39.564Z,99639.88
2023-02-27T01:50:43.676Z,99639.16
2023-02-27T01:51:47.768Z,99638.64
2023-02-27T01:52:51.860Z,99640.06
2023-02-27T01:53:56.089Z,99639.34
2023-02-27T01:55:00.193Z,99634.31
2023-02-27T01:56:04.353Z,99637.16
2023-02-27T01:57:08.475Z,99640.09
2023-02-27T01:58:12.579Z,99637.74
2023-02-27T01:59:16.717Z,99639.94
2023-02-27T02:00:20.811Z,99642.17
2023-02-27T02:01:25.493Z,99639.56
2023-02-27T02:02:30.425Z,99641.2
2023-02-27T02:03:34.613Z,99641.3
2023-02-27T02:04:38.727Z,99643.8
2023-02-27T02:05:42.874Z,99645.63
2023-02-27T02:06:47.000Z,99636.23
2023-02-27T02:07:51.086Z,99638.47
2023-02-27T02:08:55.236Z,99640.55
2023-02-27T02:09:59.382Z,99636.72
2023-02-27T02:11:03.485Z,99638.91
2023-02-27T02:12:07.581Z,99637.94
2023-02-27T02:13:11.689Z,99630.95
2023-02-27T02:14:15.955Z,99624.2
2023-02-27T02:15:20.127Z,99624.43
2023-02-27T02:16:24.287Z,99632.47
2023-02-27T02:17:28.488Z,99628.55
2023-02-27T02:18:32.588Z,99630.41
2023-02-27T02:19:36.720Z,99625.88
2023-02-27T02:20:41.003Z,99622.63
2023-02-27T02:21:45.115Z,99625.13
2023-02-27T02:22:49.228Z,99618.83
2023-02-27T02:23:53.386Z,99628.84
2023-02-27T02:24:57.512Z,99627.09
2023-02-27T02:26:01.621Z,99631.52
2023-02-27T02:27:05.750Z,99626.66
2023-02-27T02:28:09.878Z,99633.86
2023-02-27T02:29:13.998Z,99625.7
2023-02-27T02:30:18.159Z,99621.45
2023-02-27T02:31:22.596Z,99626.86
2023-02-27T02:32:27.096Z,99637.58
2023-02-27T02:33:31.308Z,99629.49
2023-02-27T02:34:35.415Z,99640.84
2023-02-27T02:35:39.568Z,99638.35
2023-02-27T02:36:43.670Z,99641.03
2023-02-27T02:37:47.768Z,99641.63
2023-02-27T02:38:51.882Z,99648.31
2023-02-27T02:39:56.015Z,99637.7
2023-02-27T02:41:00.151Z,99635.63
2023-02-27T02:42:04.257Z,99647.19
2023-02-27T02:43:08.380Z,99645.92
2023-02-27T02:44:12.462Z,99645.28
2023-02-27T02:45:16.563Z,99639.62
2023-02-27T02:46:20.832Z,99645.17
2023-02-27T02:47:25.014Z,99647.14
2023-02-27T02:48:29.126Z,99653.02
2023-02-27T02:49:33.220Z,99653.83
2023-02-27T02:50:37.315Z,99655.94
2023-02-27T02:51:41.433Z,99655.3
2023-02-27T02:52:45.562Z,99659.47
2023-02-27T02:53:49.652Z,99656.56
2023-02-27T02:54:53.754Z,99662.64
2023-02-27T02:55:57.859Z,99662.64
2023-02-27T02:57:02.017Z,99657.33
2023-02-27T02:58:06.105Z,99666.7
2023-02-27T02:59:10.224Z,99667.87
2023-02-27T03:00:14.360Z,99667.73
2023-02-27T03:01:18.640Z,99669.28
2023-02-27T03:02:22.847Z,99671.88
2023-02-27T03:03:27.051Z,99666.4
2023-02-27T03:04:31.349Z,99668.38
2023-02-27T03:05:35.519Z,99666.81
2023-02-27T03:06:39.677Z,99670.72
2023-02-27T03:07:43.932Z,99673.92
2023-02-27T03:08:48.090Z,99673.22
2023-02-27T03:09:52.189Z,99679.81
2023-02-27T03:10:56.291Z,99670.19
2023-02-27T03:12:00.419Z,99671.55
2023-02-27T03:13:04.734Z,99684.17
2023-02-27T03:14:08.825Z,99676.67
2023-02-27T03:15:12.932Z,99674.23
2023-02-27T03:16:17.263Z,99673.17
2023-02-27T03:17:21.358Z,99675.3
2023-02-27T03:18:25.597Z,99676.92
2023-02-27T03:19:29.754Z,99676.23
2023-02-27T03:20:33.864Z,99677.16
2023-02-27T03:21:37.969Z,99686.3
2023-02-27T03:22:42.237Z,99685.11
2023-02-27T03:23:46.359Z,99687.5
2023-02-27T03:24:50.479Z,99686.17
2023-02-27T03:25:55.694Z,99694.15
2023-02-27T03:27:01.731Z,99692.22
2023-02-27T03:28:05.847Z,99695.95
2023-02-27T03:29:10.184Z,99692.45
2023-02-27T03:30:14.295Z,99689.89
2023-02-27T03:31:18.626Z,99695.3
2023-02-27T03:32:23.008Z,99697.32
2023-02-27T03:33:27.262Z,99700.3
2023-02-27T03:34:31.393Z,99697.91
2023-02-27T03:35:35.478Z,99703.84
2023-02-27T03:36:39.562Z,99700.25
2023-02-27T03:37:43.697Z,99705.98
2023-02-27T03:38:47.811Z,99701.27
2023-02-27T03:39:51.903Z,99700.98
2023-02-27T03:40:56.012Z,99704.7
2023-02-27T03:42:00.149Z,99703.3
2023-02-27T03:43:04.248Z,99708.08
2023-02-27T03:44:08.401Z,99710.57
2023-02-27T03:45:12.510Z,99702.71
2023-02-27T03:46:16.674Z,99711.91
2023-02-27T03:47:20.828Z,99712.59
2023-02-27T03:48:24.958Z,99710.78
2023-02-27T03:49:29.100Z,99711.52
2023-02-27T03:50:33.192Z,99701.73
2023-02-27T03:51:37.314Z,99713.55
2023-02-27T03:52:41.522Z,99705.45
2023-02-27T03:53:45.697Z,99705.91
2023-02-27T03:54:49.847Z,99715.05
2023-02-27T03:55:53.963Z,99715.87
2023-02-27T03:56:58.088Z,99714.23
2023-02-27T03:58:02.192Z,99716.98
2023-02-27T03:59:06.301Z,99722.58
2023-02-27T04:00:10.418Z,99716.21
2023-02-27T04:01:14.527Z,99719.12
2023-02-27T04:02:18.611Z,99717.44
2023-02-27T04:03:22.738Z,99726.47
2023-02-27T04:04:26.876Z,99722.07
2023-02-27T04:05:31.008Z,99719.2
2023-02-27T04:06:35.111Z,99722.59
2023-02-27T04:07:39.209Z,99718.16
2023-02-27T04:08:43.312Z,99729.56
2023-02-27T04:09:47.439Z,99722.41
2023-02-27T04:10:51.672Z,99728.98
2023-02-27T04:11:55.819Z,99729.31
2023-02-27T04:12:59.915Z,99721.97
2023-02-27T04:14:04.025Z,99730.62
2023-02-27T04:15:08.155Z,99729.69
2023-02-27T04:16:12.387Z,99738.83
2023-02-27T04:17:16.661Z,99737.82
2023-02-27T04:18:20.880Z,99743.97
2023-02-27T04:19:25.005Z,99737.92
2023-02-27T04:20:29.151Z,99744.98
2023-02-27T04:21:33.241Z,99737.94
2023-02-27T04:22:37.360Z,99751.28
2023-02-27T04:23:41.681Z,99746.77
2023-02-27T04:24:45.772Z,99747.59
2023-02-27T04:25:49.880Z,99740.84
2023-02-27T04:26:54.031Z,99753.14
2023-02-27T04:27:58.150Z,99746.84
2023-02-27T04:29:02.274Z,99752.28
2023-02-27T04:30:06.437Z,99746.69
2023-02-27T04:31:10.807Z,99753.41
2023-02-27T04:32:15.343Z,99748.74
2023-02-27T04:33:19.670Z,99742
2023-02-27T04:34:23.773Z,99745.57
2023-02-27T04:35:27.864Z,99748.96
2023-02-27T04:36:31.974Z,99745.87
2023-02-27T04:37:36.082Z,99752.91
2023-02-27T04:38:40.170Z,99750.05
2023-02-27T04:39:44.292Z,99756.05
2023-02-27T04:40:48.431Z,99742.81
2023-02-27T04:41:52.540Z,99753.41
2023-02-27T04:42:56.642Z,99744.64
2023-02-27T04:44:00.725Z,99749.71
2023-02-27T04:45:04.821Z,99750.86
2023-02-27T04:46:09.215Z,99749.56
2023-02-27T04:47:13.410Z,99749.78
2023-02-27T04:48:17.550Z,99752.17
2023-02-27T04:49:21.673Z,99745.53
2023-02-27T04:50:25.814Z,99755.38
2023-02-27T04:51:30.368Z,99751.98
2023-02-27T04:52:34.527Z,99752.7
2023-02-27T04:53:38.668Z,99758.92
2023-02-27T04:54:42.795Z,99755.2
2023-02-27T04:55:46.940Z,99756.76
2023-02-27T04:56:51.052Z,99756.23
2023-02-27T04:57:55.153Z,99756.91
2023-02-27T04:58:59.276Z,99755.94
2023-02-27T05:00:03.407Z,99759.37
2023-02-27T05:01:07.531Z,99755.45
2023-02-27T05:02:11.937Z,99759.29
2023-02-27T05:03:16.312Z,99749.07
2023-02-27T05:04:20.409Z,99755.67
2023-02-27T05:05:24.511Z,99753.84
2023-02-27T05:06:28.594Z,99754.89
2023-02-27T05:07:32.716Z,99754.03
2023-02-27T05:08:36.840Z,99757.65
2023-02-27T05:09:40.985Z,99768.8
2023-02-27T05:10:45.111Z,99764.22
2023-02-27T05:11:49.221Z,99762.16
2023-02-27T05:12:53.332Z,99760.45
2023-02-27T05:13:57.468Z,99765.11
2023-02-27T05:15:01.609Z,99766.45
2023-02-27T05:16:06.024Z,99765.19
2023-02-27T05:17:10.345Z,99767.98
2023-02-27T05:18:14.595Z,99763.51
2023-02-27T05:19:18.928Z,99706.49
2023-02-27T05:20:23.008Z,99772.31
2023-02-27T05:21:28.276Z,99774.4
2023-02-27T05:22:33.161Z,99774.21
2023-02-27T05:23:37.298Z,99770.48
2023-02-27T05:24:41.432Z,99775.03
2023-02-27T05:25:45.551Z,99779.51
2023-02-27T05:26:49.705Z,99784.73
2023-02-27T05:27:53.826Z,99777.45
2023-02-27T05:28:58.027Z,99785.99
2023-02-27T05:30:02.127Z,99785.8
2023-02-27T05:31:06.237Z,99785.39
2023-02-27T05:32:10.680Z,99787.86
2023-02-27T05:33:15.029Z,99791.55
2023-02-27T05:34:19.218Z,99789.49
2023-02-27T05:35:23.331Z,99789.49
2023-02-27T05:36:27.450Z,99783.3
2023-02-27T05:37:31.607Z,99787.63
2023-02-27T05:38:35.740Z,99783.41
2023-02-27T05:39:39.844Z,99780.02
2023-02-27T05:40:44.050Z,99781.67
2023-02-27T05:41:48.171Z,99779.98
2023-02-27T05:42:52.417Z,99784.32
2023-02-27T05:43:56.533Z,99791.74
2023-02-27T05:45:00.681Z,99780.97
2023-02-27T05:46:04.951Z,99788.3
2023-02-27T05:47:09.147Z,99785.29
2023-02-27T05:48:13.277Z,99782.68
2023-02-27T05:49:17.392Z,99791.14
2023-02-27T05:50:21.559Z,99787.6
2023-02-27T05:51:26.184Z,99792.89
2023-02-27T05:52:30.963Z,99794.69
2023-02-27T05:53:35.136Z,99796.25
2023-02-27T05:54:39.270Z,99797.59
2023-02-27T05:55:43.408Z,99797.36
2023-02-27T05:56:47.537Z,99795.28
2023-02-27T05:57:51.651Z,99797.88
2023-02-27T05:58:55.759Z,99796.13
2023-02-27T05:59:59.882Z,99795.6
2023-02-27T06:01:04.030Z,99800.97
2023-02-27T06:02:08.277Z,99799.3
2023-02-27T06:03:12.614Z,99799.36
2023-02-27T06:04:16.896Z,99801.94
2023-02-27T06:05:20.997Z,99803.69
2023-02-27T06:06:25.406Z,99806.89
2023-02-27T06:07:30.150Z,99801.06
2023-02-27T06:08:34.292Z,99806.84
2023-02-27T06:09:38.459Z,99804.72
2023-02-27T06:10:42.543Z,99807.81
2023-02-27T06:11:46.660Z,99808.21
2023-02-27T06:12:50.771Z,99813.39
2023-02-27T06:13:54.907Z,99812.23
2023-02-27T06:14:59.022Z,99809.92
2023-02-27T06:16:03.127Z,99817.04
2023-02-27T06:17:07.369Z,99818.9
2023-02-27T06:18:11.543Z,99814.94
2023-02-27T06:19:15.668Z,99819.78
2023-02-27T06:20:19.803Z,99827.53
2023-02-27T06:21:23.901Z,99828.13
2023-02-27T06:22:28.040Z,99826.55
2023-02-27T06:23:32.162Z,99828.91
2023-02-27T06:24:36.291Z,99827.67
2023-02-27T06:25:40.500Z,99831.05
2023-02-27T06:26:44.602Z,99830.23
2023-02-27T06:27:48.698Z,99825.05
2023-02-27T06:28:52.819Z,99827.09
2023-02-27T06:29:56.964Z,99832.23
2023-02-27T06:31:01.191Z,99833.17
2023-02-27T06:32:05.544Z,99832.61
2023-02-27T06:33:09.739Z,99832.61
2023-02-27T06:34:13.852Z,99828.87
2023-02-27T06:35:18.017Z,99838.9
2023-02-27T06:36:22.130Z,99831.63
2023-02-27T06:37:26.259Z,99838.03
2023-02-27T06:38:30.330Z,99829.05
2023-02-27T06:39:34.435Z,99835.84
2023-02-27T06:40:38.561Z,99833.36
2023-02-27T06:41:42.711Z,99826.92
2023-02-27T06:42:46.824Z,99839.4
2023-02-27T06:43:50.972Z,99835.77
2023-02-27T06:44:55.321Z,99842.7
2023-02-27T06:45:59.585Z,99842.47
2023-02-27T06:47:03.826Z,99837.19
2023-02-27T06:48:07.969Z,99841.13
2023-02-27T06:49:12.154Z,99844.3
2023-02-27T06:50:16.262Z,99848.02
2023-02-27T06:51:20.412Z,99844.92
2023-02-27T06:52:24.552Z,99845.52
2023-02-27T06:53:28.657Z,99844.1
2023-02-27T06:54:32.781Z,99846.03
2023-02-27T06:55:36.917Z,99848.16
2023-02-27T06:56:41.067Z,99842.48
2023-02-27T06:57:45.231Z,99844.23
2023-02-27T06:58:49.317Z,99849.26
2023-02-27T06:59:53.588Z,99854.96
2023-02-27T07:00:57.714Z,99849.26
2023-02-27T07:02:01.846Z,99846.05
2023-02-27T07:03:05.993Z,99854.91
2023-02-27T07:04:10.103Z,99856.36
2023-02-27T07:05:14.234Z,99858.93
2023-02-27T07:06:18.512Z,99861.72
2023-02-27T07:07:38.883Z,99860.97
2023-02-27T07:09:06.799Z,99863.34
2023-02-27T07:10:11.235Z,99862.59
2023-02-27T07:11:15.383Z,99867.14
2023-02-27T07:12:19.479Z,99868.55
2023-02-27T07:13:23.613Z,99868.32
2023-02-27T07:14:27.749Z,99866.05
2023-02-27T07:15:31.874Z,99871.18
2023-02-27T07:16:36.180Z,99870.59
2023-02-27T07:17:40.294Z,99870.36
2023-02-27T07:18:44.456Z,99864.02
2023-02-27T07:19:48.638Z,99867.37
2023-02-27T07:20:52.756Z,99871.39
2023-02-27T07:21:56.912Z,99872.39
2023-02-27T07:23:01.025Z,99868.38
2023-02-27T07:24:05.183Z,99868.96
2023-02-27T07:25:09.317Z,99872.05
2023-02-27T07:26:13.438Z,99869.58
2023-02-27T07:27:17.546Z,99873.55
2023-02-27T07:28:21.882Z,99876.98
2023-02-27T07:29:26.077Z,99877.58
2023-02-27T07:30:30.210Z,99882.05
2023-02-27T07:31:34.478Z,99882.7
2023-02-27T07:32:38.801Z,99884.12
2023-02-27T07:33:42.894Z,99885.38
2023-02-27T07:34:47.013Z,99875.02
2023-02-27T07:35:51.191Z,99886.39
2023-02-27T07:36:55.391Z,99883.68
2023-02-27T07:37:59.515Z,99884.58
2023-02-27T07:39:03.610Z,99894.12
2023-02-27T07:40:07.741Z,99891.52
2023-02-27T07:41:30.544Z,99888.11
2023-02-27T07:42:34.936Z,99885.89
2023-02-27T07:43:39.078Z,99891.38
2023-02-27T07:44:43.224Z,99892.91
2023-02-27T07:45:47.615Z,99896.41
2023-02-27T07:46:51.872Z,99896.51
2023-02-27T07:47:56.118Z,99890.5
2023-02-27T07:49:00.269Z,99890.61
2023-02-27T07:50:05.684Z,99892.67
2023-02-27T07:51:09.811Z,99893.19
2023-02-27T07:52:13.943Z,99892.2
2023-02-27T07:53:18.059Z,99891.38
2023-02-27T07:54:22.385Z,99893.95
2023-02-27T07:55:26.537Z,99894.05
2023-02-27T07:56:31.219Z,99888.56
2023-02-27T07:57:35.386Z,99895.8
2023-02-27T07:58:39.556Z,99899.52
2023-02-27T07:59:43.683Z,99904.02
2023-02-27T08:00:47.793Z,99906.3
2023-02-27T08:01:51.932Z,99906.88
2023-02-27T08:02:56.237Z,99909.56
2023-02-27T08:04:00.411Z,99905.23
2023-02-27T08:05:04.608Z,99899.41
2023-02-27T08:06:08.717Z,99907.78
2023-02-27T08:07:12.845Z,99907.67
2023-02-27T08:08:16.941Z,99911.36
2023-02-27T08:09:21.066Z,99908.19
2023-02-27T08:10:25.235Z,99905
2023-02-27T08:11:30.224Z,99907.34
2023-02-27T08:12:34.469Z,99909.7
2023-02-27T08:14:08.591Z,99903.7
2023-02-27T08:15:12.701Z,99904.87
2023-02-27T08:16:16.907Z,99909.14
2023-02-27T08:17:21.091Z,99907.62
2023-02-27T08:18:25.210Z,99907.9
2023-02-27T08:19:29.354Z,99913.59
2023-02-27T08:20:33.483Z,99909.99
2023-02-27T08:21:37.572Z,99910.41
2023-02-27T08:22:41.687Z,99905.5
2023-02-27T08:23:45.843Z,99915.94
2023-02-27T08:24:49.970Z,99912.51
2023-02-27T08:25:54.084Z,99917.37
2023-02-27T08:26:58.246Z,99915.11
2023-02-27T08:28:02.410Z,99915.05
2023-02-27T08:29:06.583Z,99919.83
2023-02-27T08:30:10.869Z,99922.06
2023-02-27T08:31:15.358Z,99920.93
2023-02-27T08:32:19.740Z,99922.34
2023-02-27T08:33:23.936Z,99928.77
2023-02-27T08:34:28.109Z,99928.97
2023-02-27T08:35:32.349Z,99921.17
2023-02-27T08:36:36.548Z,99928.39
2023-02-27T08:37:40.726Z,99928.62
2023-02-27T08:38:44.888Z,99933.98
2023-02-27T08:39:49.003Z,99924.78
2023-02-27T08:40:53.129Z,99917.13
2023-02-27T08:41:57.260Z,99923.03
2023-02-27T08:43:01.393Z,99918.88
2023-02-27T08:44:05.680Z,99926.05
2023-02-27T08:45:09.859Z,99927.88
2023-02-27T08:46:14.201Z,99927.33
2023-02-27T08:47:18.396Z,99921.62
2023-02-27T08:48:22.514Z,99929.31
2023-02-27T08:49:26.661Z,99928.74
2023-02-27T08:50:30.864Z,99931.42
2023-02-27T08:51:35.029Z,99927.91
2023-02-27T08:52:39.191Z,99927.61
2023-02-27T08:53:43.309Z,99932.34
2023-02-27T08:54:47.458Z,99930.52
2023-02-27T08:55:51.580Z,99933.97
2023-02-27T08:56:55.680Z,99935.13
2023-02-27T08:57:59.802Z,99929.37
2023-02-27T08:59:03.938Z,99933.55
2023-02-27T09:00:08.184Z,99933.8
2023-02-27T09:01:12.647Z,99933.97
2023-02-27T09:02:17.287Z,99934.73
2023-02-27T09:03:21.553Z,99942.02
2023-02-27T09:04:25.769Z,99944.77
2023-02-27T09:05:34.567Z,99939.68
2023-02-27T09:06:38.837Z,99939.55
2023-02-27T09:07:42.985Z,99938.86
2023-02-27T09:08:47.215Z,99948.34
2023-02-27T09:09:51.323Z,99946.66
2023-02-27T09:10:55.543Z,99942.5
2023-02-27T09:11:59.650Z,99953.87
2023-02-27T09:13:03.778Z,99958.3
2023-02-27T09:14:09.873Z,99950.33
2023-02-27T09:15:14.113Z,99947
2023-02-27T09:16:18.336Z,99955.89
2023-02-27T09:17:22.497Z,99951.53
2023-02-27T09:18:26.703Z,99955.14
